sensor_id;sensor_type;location;lat;lon;timestamp;P1;P2;P0
85042;PMS7003;75372;51.206;16.144;2024-01-07T00:00:30;37.67;37.67;19.67
85042;PMS7003;75372;51.206;16.144;2024-01-07T00:02:01;24.00;24.00;18.50
85042;PMS7003;75372;51.206;16.144;2024-01-07T00:03:31;31.67;31.67;21.00
85042;PMS7003;75372;51.206;16.144;2024-01-07T00:05:02;35.00;35.00;20.67
85042;PMS7003;75372;51.206;16.144;2024-01-07T00:06:32;37.00;36.00;19.67
85042;PMS7003;75372;51.206;16.144;2024-01-07T00:08:02;40.00;38.50;22.00
85042;PMS7003;75372;51.206;16.144;2024-01-07T00:09:33;33.33;33.00;21.67
85042;PMS7003;75372;51.206;16.144;2024-01-07T00:11:03;45.00;42.25;24.00
85042;PMS7003;75372;51.206;16.144;2024-01-07T00:12:34;36.50;36.50;22.50
85042;PMS7003;75372;51.206;16.144;2024-01-07T00:14:05;39.25;37.00;23.00
85042;PMS7003;75372;51.206;16.144;2024-01-07T00:15:35;42.75;39.75;23.50
85042;PMS7003;75372;51.206;16.144;2024-01-07T00:17:06;38.75;38.75;22.50
85042;PMS7003;75372;51.206;16.144;2024-01-07T00:18:36;46.50;43.25;26.00
85042;PMS7003;75372;51.206;16.144;2024-01-07T00:20:07;43.00;40.00;24.00
85042;PMS7003;75372;51.206;16.144;2024-01-07T00:21:38;37.50;36.25;21.25
85042;PMS7003;75372;51.206;16.144;2024-01-07T00:23:08;44.00;41.00;21.50
85042;PMS7003;75372;51.206;16.144;2024-01-07T00:24:39;39.75;39.25;23.00
85042;PMS7003;75372;51.206;16.144;2024-01-07T00:26:09;44.50;44.00;24.25
85042;PMS7003;75372;51.206;16.144;2024-01-07T00:27:40;40.67;37.67;20.33
85042;PMS7003;75372;51.206;16.144;2024-01-07T00:29:10;41.00;37.33;21.67
85042;PMS7003;75372;51.206;16.144;2024-01-07T00:30:40;41.50;39.00;21.00
85042;PMS7003;75372;51.206;16.144;2024-01-07T00:32:11;46.25;45.00;24.50
85042;PMS7003;75372;51.206;16.144;2024-01-07T00:33:41;49.00;43.00;26.50
85042;PMS7003;75372;51.206;16.144;2024-01-07T00:35:11;22.75;19.00;3.00
85042;PMS7003;75372;51.206;16.144;2024-01-07T00:36:42;33.00;32.33;22.00
85042;PMS7003;75372;51.206;16.144;2024-01-07T00:38:12;38.25;37.50;19.50
85042;PMS7003;75372;51.206;16.144;2024-01-07T00:39:42;40.50;38.00;22.50
85042;PMS7003;75372;51.206;16.144;2024-01-07T00:41:15;36.33;36.33;19.00
85042;PMS7003;75372;51.206;16.144;2024-01-07T00:42:46;34.25;31.00;18.00
85042;PMS7003;75372;51.206;16.144;2024-01-07T00:44:16;38.00;38.00;21.25
85042;PMS7003;75372;51.206;16.144;2024-01-07T00:45:46;38.25;37.25;22.00
85042;PMS7003;75372;51.206;16.144;2024-01-07T00:47:17;45.75;43.50;23.50
85042;PMS7003;75372;51.206;16.144;2024-01-07T00:48:47;54.25;45.00;25.00
85042;PMS7003;75372;51.206;16.144;2024-01-07T00:50:18;42.75;40.50;25.00
85042;PMS7003;75372;51.206;16.144;2024-01-07T00:51:48;38.50;36.75;23.00
85042;PMS7003;75372;51.206;16.144;2024-01-07T00:53:18;36.75;34.00;19.00
85042;PMS7003;75372;51.206;16.144;2024-01-07T00:54:49;36.25;34.50;21.25
85042;PMS7003;75372;51.206;16.144;2024-01-07T00:56:19;29.25;28.00;19.00
85042;PMS7003;75372;51.206;16.144;2024-01-07T00:57:49;32.25;31.50;21.25
85042;PMS7003;75372;51.206;16.144;2024-01-07T00:59:20;31.25;31.25;19.50
85042;PMS7003;75372;51.206;16.144;2024-01-07T01:00:50;37.00;36.75;22.00
85042;PMS7003;75372;51.206;16.144;2024-01-07T01:02:23;38.00;38.00;21.75
85042;PMS7003;75372;51.206;16.144;2024-01-07T01:03:54;28.00;28.00;19.00
85042;PMS7003;75372;51.206;16.144;2024-01-07T01:05:24;33.75;32.00;20.00
85042;PMS7003;75372;51.206;16.144;2024-01-07T01:06:54;25.50;22.00;8.00
85042;PMS7003;75372;51.206;16.144;2024-01-07T01:08:25;35.00;32.25;18.75
85042;PMS7003;75372;51.206;16.144;2024-01-07T01:09:55;33.25;30.25;19.00
85042;PMS7003;75372;51.206;16.144;2024-01-07T01:11:26;34.50;32.75;20.00
85042;PMS7003;75372;51.206;16.144;2024-01-07T01:12:56;32.00;29.50;18.00
85042;PMS7003;75372;51.206;16.144;2024-01-07T01:14:26;30.00;30.00;19.25
85042;PMS7003;75372;51.206;16.144;2024-01-07T01:15:57;39.50;35.50;21.50
85042;PMS7003;75372;51.206;16.144;2024-01-07T01:17:27;45.25;39.00;23.50
85042;PMS7003;75372;51.206;16.144;2024-01-07T01:18:57;38.00;38.00;24.25
85042;PMS7003;75372;51.206;16.144;2024-01-07T01:20:28;38.25;38.25;22.00
85042;PMS7003;75372;51.206;16.144;2024-01-07T01:21:59;39.50;39.25;24.00
85042;PMS7003;75372;51.206;16.144;2024-01-07T01:23:29;35.75;35.50;21.50
85042;PMS7003;75372;51.206;16.144;2024-01-07T01:25:00;34.50;34.50;21.25
85042;PMS7003;75372;51.206;16.144;2024-01-07T01:26:31;35.25;33.50;21.00
85042;PMS7003;75372;51.206;16.144;2024-01-07T01:28:01;35.50;32.50;21.75
85042;PMS7003;75372;51.206;16.144;2024-01-07T01:29:31;43.50;41.75;22.50
85042;PMS7003;75372;51.206;16.144;2024-01-07T01:31:02;40.00;36.50;23.50
85042;PMS7003;75372;51.206;16.144;2024-01-07T01:32:32;33.50;33.50;22.00
85042;PMS7003;75372;51.206;16.144;2024-01-07T01:34:03;42.25;34.25;21.25
85042;PMS7003;75372;51.206;16.144;2024-01-07T01:35:33;34.00;34.00;22.00
85042;PMS7003;75372;51.206;16.144;2024-01-07T01:37:03;39.00;37.50;24.25
85042;PMS7003;75372;51.206;16.144;2024-01-07T01:38:34;41.50;37.50;22.00
85042;PMS7003;75372;51.206;16.144;2024-01-07T01:40:04;33.50;33.00;20.25
85042;PMS7003;75372;51.206;16.144;2024-01-07T01:41:35;36.25;30.25;18.00
85042;PMS7003;75372;51.206;16.144;2024-01-07T01:43:05;35.50;35.50;21.25
85042;PMS7003;75372;51.206;16.144;2024-01-07T01:44:35;40.50;39.25;22.50
85042;PMS7003;75372;51.206;16.144;2024-01-07T01:46:06;37.00;34.50;22.00
85042;PMS7003;75372;51.206;16.144;2024-01-07T01:47:36;36.75;34.00;20.00
85042;PMS7003;75372;51.206;16.144;2024-01-07T01:49:07;39.75;36.50;22.25
85042;PMS7003;75372;51.206;16.144;2024-01-07T01:50:38;39.50;36.25;22.00
85042;PMS7003;75372;51.206;16.144;2024-01-07T01:52:08;41.00;39.25;23.00
85042;PMS7003;75372;51.206;16.144;2024-01-07T01:53:39;30.25;30.25;18.25
85042;PMS7003;75372;51.206;16.144;2024-01-07T01:55:10;37.00;34.50;20.50
85042;PMS7003;75372;51.206;16.144;2024-01-07T01:56:40;39.00;37.00;20.00
85042;PMS7003;75372;51.206;16.144;2024-01-07T01:58:11;41.75;41.00;20.50
85042;PMS7003;75372;51.206;16.144;2024-01-07T01:59:43;35.00;30.75;20.00
85042;PMS7003;75372;51.206;16.144;2024-01-07T02:01:13;36.25;34.00;21.00
85042;PMS7003;75372;51.206;16.144;2024-01-07T02:02:44;42.50;39.75;24.75
85042;PMS7003;75372;51.206;16.144;2024-01-07T02:04:14;30.50;24.25;7.00
85042;PMS7003;75372;51.206;16.144;2024-01-07T02:05:45;39.50;38.50;24.00
85042;PMS7003;75372;51.206;16.144;2024-01-07T02:07:15;38.25;37.00;22.00
85042;PMS7003;75372;51.206;16.144;2024-01-07T02:08:46;34.00;34.00;24.75
85042;PMS7003;75372;51.206;16.144;2024-01-07T02:10:16;36.75;35.50;20.50
85042;PMS7003;75372;51.206;16.144;2024-01-07T02:12:05;39.00;34.50;18.00
85042;PMS7003;75372;51.206;16.144;2024-01-07T02:13:36;33.50;33.50;23.00
85042;PMS7003;75372;51.206;16.144;2024-01-07T02:15:06;36.50;35.50;21.25
85042;PMS7003;75372;51.206;16.144;2024-01-07T02:16:37;33.00;30.25;20.50
85042;PMS7003;75372;51.206;16.144;2024-01-07T02:18:07;37.00;34.50;19.50
85042;PMS7003;75372;51.206;16.144;2024-01-07T02:19:38;33.75;33.00;21.00
85042;PMS7003;75372;51.206;16.144;2024-01-07T02:21:12;27.50;27.50;19.00
85042;PMS7003;75372;51.206;16.144;2024-01-07T02:22:43;32.50;32.50;19.00
85042;PMS7003;75372;51.206;16.144;2024-01-07T02:24:17;33.75;33.75;21.25
85042;PMS7003;75372;51.206;16.144;2024-01-07T02:25:47;33.00;32.50;22.00
85042;PMS7003;75372;51.206;16.144;2024-01-07T02:27:17;24.00;23.75;13.50
85042;PMS7003;75372;51.206;16.144;2024-01-07T02:28:48;30.50;30.50;21.50
85042;PMS7003;75372;51.206;16.144;2024-01-07T02:30:18;29.50;28.50;19.00
85042;PMS7003;75372;51.206;16.144;2024-01-07T02:31:49;31.50;31.50;22.00
85042;PMS7003;75372;51.206;16.144;2024-01-07T02:33:19;28.50;28.00;19.50
85042;PMS7003;75372;51.206;16.144;2024-01-07T02:34:50;32.50;31.25;18.00
85042;PMS7003;75372;51.206;16.144;2024-01-07T02:36:20;31.50;31.50;18.50
85042;PMS7003;75372;51.206;16.144;2024-01-07T02:37:50;37.75;33.00;18.00
85042;PMS7003;75372;51.206;16.144;2024-01-07T02:39:21;36.25;33.50;19.00
85042;PMS7003;75372;51.206;16.144;2024-01-07T02:40:51;29.00;28.50;18.00
85042;PMS7003;75372;51.206;16.144;2024-01-07T02:42:22;29.25;29.25;19.00
85042;PMS7003;75372;51.206;16.144;2024-01-07T02:43:52;29.50;29.00;18.00
85042;PMS7003;75372;51.206;16.144;2024-01-07T02:45:22;26.25;25.50;18.25
85042;PMS7003;75372;51.206;16.144;2024-01-07T02:46:53;37.00;33.25;19.00
85042;PMS7003;75372;51.206;16.144;2024-01-07T02:48:23;34.00;33.50;18.50
85042;PMS7003;75372;51.206;16.144;2024-01-07T02:49:54;28.00;28.00;16.00
85042;PMS7003;75372;51.206;16.144;2024-01-07T02:51:25;34.50;30.25;18.00
85042;PMS7003;75372;51.206;16.144;2024-01-07T02:52:55;28.50;28.50;16.00
85042;PMS7003;75372;51.206;16.144;2024-01-07T02:54:25;31.00;31.00;18.00
85042;PMS7003;75372;51.206;16.144;2024-01-07T02:55:56;33.25;28.50;18.00
85042;PMS7003;75372;51.206;16.144;2024-01-07T02:57:26;19.00;19.00;15.00
85042;PMS7003;75372;51.206;16.144;2024-01-07T02:58:56;27.50;27.50;18.75
85042;PMS7003;75372;51.206;16.144;2024-01-07T03:00:27;27.00;27.00;17.00
85042;PMS7003;75372;51.206;16.144;2024-01-07T03:01:57;27.25;27.25;18.25
85042;PMS7003;75372;51.206;16.144;2024-01-07T03:03:27;31.25;27.50;19.00
85042;PMS7003;75372;51.206;16.144;2024-01-07T03:04:58;30.75;28.50;16.50
85042;PMS7003;75372;51.206;16.144;2024-01-07T03:06:28;28.25;27.50;16.00
85042;PMS7003;75372;51.206;16.144;2024-01-07T03:07:58;29.00;27.25;18.25
85042;PMS7003;75372;51.206;16.144;2024-01-07T03:09:30;32.75;31.25;18.50
85042;PMS7003;75372;51.206;16.144;2024-01-07T03:11:04;32.00;26.75;16.50
85042;PMS7003;75372;51.206;16.144;2024-01-07T03:12:35;24.00;24.00;15.00
85042;PMS7003;75372;51.206;16.144;2024-01-07T03:14:05;26.50;26.50;16.50
85042;PMS7003;75372;51.206;16.144;2024-01-07T03:15:36;27.00;27.00;18.75
85042;PMS7003;75372;51.206;16.144;2024-01-07T03:17:06;21.00;21.00;16.00
85042;PMS7003;75372;51.206;16.144;2024-01-07T03:18:37;20.25;18.75;15.00
85042;PMS7003;75372;51.206;16.144;2024-01-07T03:20:07;28.33;25.33;16.00
85042;PMS7003;75372;51.206;16.144;2024-01-07T03:21:39;25.50;25.00;15.25
85042;PMS7003;75372;51.206;16.144;2024-01-07T03:23:09;28.25;26.50;16.00
85042;PMS7003;75372;51.206;16.144;2024-01-07T03:24:41;33.50;28.00;15.50
85042;PMS7003;75372;51.206;16.144;2024-01-07T03:26:12;22.33;22.33;13.00
85042;PMS7003;75372;51.206;16.144;2024-01-07T03:27:42;20.75;20.50;14.00
85042;PMS7003;75372;51.206;16.144;2024-01-07T03:29:13;27.75;25.50;18.00
85042;PMS7003;75372;51.206;16.144;2024-01-07T03:30:43;25.75;24.50;16.00
85042;PMS7003;75372;51.206;16.144;2024-01-07T03:32:13;26.50;26.50;15.00
85042;PMS7003;75372;51.206;16.144;2024-01-07T03:33:44;25.25;23.00;17.00
85042;PMS7003;75372;51.206;16.144;2024-01-07T03:35:14;26.50;25.25;15.50
85042;PMS7003;75372;51.206;16.144;2024-01-07T03:36:44;24.50;24.50;13.50
85042;PMS7003;75372;51.206;16.144;2024-01-07T03:38:15;27.50;27.50;16.50
85042;PMS7003;75372;51.206;16.144;2024-01-07T03:39:46;26.75;24.50;15.25
85042;PMS7003;75372;51.206;16.144;2024-01-07T03:41:17;25.50;24.50;16.00
85042;PMS7003;75372;51.206;16.144;2024-01-07T03:42:48;21.75;21.25;12.50
85042;PMS7003;75372;51.206;16.144;2024-01-07T03:44:18;29.00;27.50;16.00
85042;PMS7003;75372;51.206;16.144;2024-01-07T03:45:49;30.50;25.00;16.50
85042;PMS7003;75372;51.206;16.144;2024-01-07T03:47:19;27.00;27.00;15.00
85042;PMS7003;75372;51.206;16.144;2024-01-07T03:48:50;27.25;26.00;17.50
85042;PMS7003;75372;51.206;16.144;2024-01-07T03:50:20;26.33;26.33;15.33
85042;PMS7003;75372;51.206;16.144;2024-01-07T03:51:50;24.33;24.33;16.00
85042;PMS7003;75372;51.206;16.144;2024-01-07T03:53:21;25.67;25.33;16.00
85042;PMS7003;75372;51.206;16.144;2024-01-07T03:54:51;20.50;18.25;13.00
85042;PMS7003;75372;51.206;16.144;2024-01-07T03:56:21;25.00;24.00;17.50
85042;PMS7003;75372;51.206;16.144;2024-01-07T03:57:52;24.75;24.25;15.50
85042;PMS7003;75372;51.206;16.144;2024-01-07T03:59:22;24.25;24.25;15.25
85042;PMS7003;75372;51.206;16.144;2024-01-07T04:00:55;22.75;22.75;15.25
85042;PMS7003;75372;51.206;16.144;2024-01-07T04:02:25;24.00;23.25;13.00
85042;PMS7003;75372;51.206;16.144;2024-01-07T04:03:55;23.25;23.00;16.00
85042;PMS7003;75372;51.206;16.144;2024-01-07T04:05:26;24.00;24.00;15.75
85042;PMS7003;75372;51.206;16.144;2024-01-07T04:06:56;19.00;19.00;12.00
85042;PMS7003;75372;51.206;16.144;2024-01-07T04:08:27;21.75;21.75;14.50
85042;PMS7003;75372;51.206;16.144;2024-01-07T04:09:58;19.00;19.00;12.25
85042;PMS7003;75372;51.206;16.144;2024-01-07T04:11:28;26.00;24.25;16.00
85042;PMS7003;75372;51.206;16.144;2024-01-07T04:12:59;21.00;21.00;15.50
85042;PMS7003;75372;51.206;16.144;2024-01-07T04:14:29;23.50;21.50;15.00
85042;PMS7003;75372;51.206;16.144;2024-01-07T04:15:59;22.00;22.00;14.50
85042;PMS7003;75372;51.206;16.144;2024-01-07T04:17:30;26.50;22.00;15.00
85042;PMS7003;75372;51.206;16.144;2024-01-07T04:19:00;16.00;16.00;12.75
85042;PMS7003;75372;51.206;16.144;2024-01-07T04:20:31;21.50;20.00;12.75
85042;PMS7003;75372;51.206;16.144;2024-01-07T04:22:01;21.67;21.67;15.00
85042;PMS7003;75372;51.206;16.144;2024-01-07T04:23:32;21.25;21.25;13.50
85042;PMS7003;75372;51.206;16.144;2024-01-07T04:25:02;22.50;21.25;15.00
85042;PMS7003;75372;51.206;16.144;2024-01-07T04:26:33;23.00;23.00;13.00
85042;PMS7003;75372;51.206;16.144;2024-01-07T04:28:03;26.50;26.00;15.00
85042;PMS7003;75372;51.206;16.144;2024-01-07T04:29:33;25.50;24.50;13.00
85042;PMS7003;75372;51.206;16.144;2024-01-07T04:31:04;17.33;17.33;12.00
85042;PMS7003;75372;51.206;16.144;2024-01-07T04:32:34;19.67;18.00;13.00
85042;PMS7003;75372;51.206;16.144;2024-01-07T04:34:04;16.25;15.75;10.50
85042;PMS7003;75372;51.206;16.144;2024-01-07T04:35:35;20.67;20.67;12.67
85042;PMS7003;75372;51.206;16.144;2024-01-07T04:37:06;19.67;18.67;12.67
85042;PMS7003;75372;51.206;16.144;2024-01-07T04:38:36;19.00;19.00;14.33
85042;PMS7003;75372;51.206;16.144;2024-01-07T04:40:07;17.33;16.00;12.00
85042;PMS7003;75372;51.206;16.144;2024-01-07T04:41:38;20.25;20.00;14.50
85042;PMS7003;75372;51.206;16.144;2024-01-07T04:43:08;19.00;19.00;13.00
85042;PMS7003;75372;51.206;16.144;2024-01-07T04:44:38;26.25;25.00;15.00
85042;PMS7003;75372;51.206;16.144;2024-01-07T04:46:09;19.33;19.33;13.67
85042;PMS7003;75372;51.206;16.144;2024-01-07T04:47:41;24.33;24.33;13.00
85042;PMS7003;75372;51.206;16.144;2024-01-07T04:49:11;24.33;23.33;14.33
85042;PMS7003;75372;51.206;16.144;2024-01-07T04:50:41;18.33;18.33;11.33
85042;PMS7003;75372;51.206;16.144;2024-01-07T04:52:12;24.00;24.00;16.00
85042;PMS7003;75372;51.206;16.144;2024-01-07T04:53:42;21.33;21.33;16.00
85042;PMS7003;75372;51.206;16.144;2024-01-07T04:55:12;25.33;24.00;15.33
85042;PMS7003;75372;51.206;16.144;2024-01-07T04:56:43;21.67;21.67;15.00
85042;PMS7003;75372;51.206;16.144;2024-01-07T04:58:13;18.00;18.00;13.00
85042;PMS7003;75372;51.206;16.144;2024-01-07T04:59:44;24.33;24.33;15.00
85042;PMS7003;75372;51.206;16.144;2024-01-07T05:01:14;21.67;21.00;15.67
85042;PMS7003;75372;51.206;16.144;2024-01-07T05:02:45;21.00;21.00;12.00
85042;PMS7003;75372;51.206;16.144;2024-01-07T05:04:15;23.33;21.00;15.67
85042;PMS7003;75372;51.206;16.144;2024-01-07T05:05:46;21.67;21.67;15.00
85042;PMS7003;75372;51.206;16.144;2024-01-07T05:07:16;26.33;24.00;15.00
85042;PMS7003;75372;51.206;16.144;2024-01-07T05:08:46;15.00;15.00;12.67
85042;PMS7003;75372;51.206;16.144;2024-01-07T05:10:17;20.33;20.33;15.67
85042;PMS7003;75372;51.206;16.144;2024-01-07T05:11:47;22.67;22.67;15.00
85042;PMS7003;75372;51.206;16.144;2024-01-07T05:13:17;26.25;26.25;15.00
85042;PMS7003;75372;51.206;16.144;2024-01-07T05:14:48;19.00;16.00;15.00
85042;PMS7003;75372;51.206;16.144;2024-01-07T05:16:19;25.00;24.25;16.00
85042;PMS7003;75372;51.206;16.144;2024-01-07T05:17:49;20.75;20.75;15.25
85042;PMS7003;75372;51.206;16.144;2024-01-07T05:19:20;29.00;26.50;16.00
85042;PMS7003;75372;51.206;16.144;2024-01-07T05:20:50;21.00;21.00;14.33
85042;PMS7003;75372;51.206;16.144;2024-01-07T05:22:21;22.67;22.67;16.00
85042;PMS7003;75372;51.206;16.144;2024-01-07T05:23:51;21.67;21.67;16.00
85042;PMS7003;75372;51.206;16.144;2024-01-07T05:25:22;19.67;19.67;12.00
85042;PMS7003;75372;51.206;16.144;2024-01-07T05:26:52;10.50;10.50;2.00
85042;PMS7003;75372;51.206;16.144;2024-01-07T05:28:23;28.33;27.33;19.00
85042;PMS7003;75372;51.206;16.144;2024-01-07T05:29:53;24.75;24.75;18.25
85042;PMS7003;75372;51.206;16.144;2024-01-07T05:31:25;26.50;25.00;16.00
85042;PMS7003;75372;51.206;16.144;2024-01-07T05:32:55;23.00;23.00;18.00
85042;PMS7003;75372;51.206;16.144;2024-01-07T05:34:26;21.25;21.25;15.00
85042;PMS7003;75372;51.206;16.144;2024-01-07T05:35:57;26.25;24.50;17.00
85042;PMS7003;75372;51.206;16.144;2024-01-07T05:37:27;22.00;22.00;15.33
85042;PMS7003;75372;51.206;16.144;2024-01-07T05:38:58;28.25;24.75;15.75
85042;PMS7003;75372;51.206;16.144;2024-01-07T05:40:28;22.75;22.25;13.50
85042;PMS7003;75372;51.206;16.144;2024-01-07T05:41:58;24.75;23.00;13.50
85042;PMS7003;75372;51.206;16.144;2024-01-07T05:43:29;29.00;27.50;18.00
85042;PMS7003;75372;51.206;16.144;2024-01-07T05:44:59;31.00;26.50;18.00
85042;PMS7003;75372;51.206;16.144;2024-01-07T05:46:29;26.25;26.25;18.00
85042;PMS7003;75372;51.206;16.144;2024-01-07T05:48:00;33.00;26.50;16.00
85042;PMS7003;75372;51.206;16.144;2024-01-07T05:49:30;20.50;20.50;12.50
85042;PMS7003;75372;51.206;16.144;2024-01-07T05:51:01;20.50;20.50;15.00
85042;PMS7003;75372;51.206;16.144;2024-01-07T05:52:31;28.00;27.50;17.50
85042;PMS7003;75372;51.206;16.144;2024-01-07T05:54:01;21.00;20.50;12.50
85042;PMS7003;75372;51.206;16.144;2024-01-07T05:55:32;24.50;24.50;13.50
85042;PMS7003;75372;51.206;16.144;2024-01-07T05:57:02;20.00;20.00;14.50
85042;PMS7003;75372;51.206;16.144;2024-01-07T05:58:33;23.50;21.00;9.75
85042;PMS7003;75372;51.206;16.144;2024-01-07T06:00:04;27.75;27.25;17.00
85042;PMS7003;75372;51.206;16.144;2024-01-07T06:01:34;25.75;25.75;15.00
85042;PMS7003;75372;51.206;16.144;2024-01-07T06:03:05;19.00;19.00;12.00
85042;PMS7003;75372;51.206;16.144;2024-01-07T06:04:37;27.33;26.33;15.67
85042;PMS7003;75372;51.206;16.144;2024-01-07T06:06:07;27.25;27.25;16.50
85042;PMS7003;75372;51.206;16.144;2024-01-07T06:07:38;19.67;19.67;12.33
85042;PMS7003;75372;51.206;16.144;2024-01-07T06:09:08;24.00;24.00;15.00
85042;PMS7003;75372;51.206;16.144;2024-01-07T06:10:39;24.50;24.50;16.00
85042;PMS7003;75372;51.206;16.144;2024-01-07T06:12:10;26.50;26.50;16.00
85042;PMS7003;75372;51.206;16.144;2024-01-07T06:13:40;28.00;28.00;17.50
85042;PMS7003;75372;51.206;16.144;2024-01-07T06:15:11;27.75;26.00;17.00
85042;PMS7003;75372;51.206;16.144;2024-01-07T06:16:41;23.67;23.67;15.00
85042;PMS7003;75372;51.206;16.144;2024-01-07T06:18:12;28.00;26.25;16.00
85042;PMS7003;75372;51.206;16.144;2024-01-07T06:19:42;25.00;25.00;16.00
85042;PMS7003;75372;51.206;16.144;2024-01-07T06:21:13;26.00;26.00;15.50
85042;PMS7003;75372;51.206;16.144;2024-01-07T06:22:43;24.25;24.25;11.50
85042;PMS7003;75372;51.206;16.144;2024-01-07T06:24:14;24.33;24.33;15.00
85042;PMS7003;75372;51.206;16.144;2024-01-07T06:25:45;20.00;20.00;13.00
85042;PMS7003;75372;51.206;16.144;2024-01-07T06:27:15;25.00;25.00;15.00
85042;PMS7003;75372;51.206;16.144;2024-01-07T06:28:45;21.50;21.50;14.50
85042;PMS7003;75372;51.206;16.144;2024-01-07T06:30:16;21.33;18.67;12.00
85042;PMS7003;75372;51.206;16.144;2024-01-07T06:31:47;25.00;22.00;14.33
85042;PMS7003;75372;51.206;16.144;2024-01-07T06:33:18;23.33;21.00;15.00
85042;PMS7003;75372;51.206;16.144;2024-01-07T06:34:50;26.67;26.67;15.67
85042;PMS7003;75372;51.206;16.144;2024-01-07T06:36:22;20.33;20.33;13.00
85042;PMS7003;75372;51.206;16.144;2024-01-07T06:37:53;27.00;25.00;15.00
85042;PMS7003;75372;51.206;16.144;2024-01-07T06:39:23;9.33;9.33;8.67
85042;PMS7003;75372;51.206;16.144;2024-01-07T06:40:53;16.33;16.33;9.00
85042;PMS7003;75372;51.206;16.144;2024-01-07T06:42:30;19.00;19.00;13.00
85042;PMS7003;75372;51.206;16.144;2024-01-07T06:44:01;24.33;22.00;15.67
85042;PMS7003;75372;51.206;16.144;2024-01-07T06:45:32;24.33;24.33;15.67
85042;PMS7003;75372;51.206;16.144;2024-01-07T06:47:02;24.33;24.33;15.00
85042;PMS7003;75372;51.206;16.144;2024-01-07T06:48:33;22.00;20.33;13.00
85042;PMS7003;75372;51.206;16.144;2024-01-07T06:50:03;25.75;24.75;13.00
85042;PMS7003;75372;51.206;16.144;2024-01-07T06:51:34;24.00;22.00;14.33
85042;PMS7003;75372;51.206;16.144;2024-01-07T06:53:04;22.00;22.00;15.00
85042;PMS7003;75372;51.206;16.144;2024-01-07T06:54:35;21.33;19.67;13.00
85042;PMS7003;75372;51.206;16.144;2024-01-07T06:56:05;25.00;21.00;15.00
85042;PMS7003;75372;51.206;16.144;2024-01-07T06:57:35;18.00;18.00;13.00
85042;PMS7003;75372;51.206;16.144;2024-01-07T06:59:06;19.67;19.67;12.33
85042;PMS7003;75372;51.206;16.144;2024-01-07T07:00:37;22.00;21.00;13.50
85042;PMS7003;75372;51.206;16.144;2024-01-07T07:02:07;19.67;19.67;13.67
85042;PMS7003;75372;51.206;16.144;2024-01-07T07:03:39;21.33;20.33;13.00
85042;PMS7003;75372;51.206;16.144;2024-01-07T07:05:10;23.00;21.75;14.00
85042;PMS7003;75372;51.206;16.144;2024-01-07T07:06:40;16.00;16.00;12.33
85042;PMS7003;75372;51.206;16.144;2024-01-07T07:08:11;21.25;21.00;12.25
85042;PMS7003;75372;51.206;16.144;2024-01-07T07:09:41;14.00;14.00;6.25
85042;PMS7003;75372;51.206;16.144;2024-01-07T07:11:11;21.00;20.50;13.00
85042;PMS7003;75372;51.206;16.144;2024-01-07T07:12:42;19.00;18.67;12.00
85042;PMS7003;75372;51.206;16.144;2024-01-07T07:14:12;24.00;22.00;12.25
85042;PMS7003;75372;51.206;16.144;2024-01-07T07:15:42;22.00;22.00;11.25
85042;PMS7003;75372;51.206;16.144;2024-01-07T07:17:13;20.50;20.50;13.00
85042;PMS7003;75372;51.206;16.144;2024-01-07T07:18:44;20.50;20.50;15.00
85042;PMS7003;75372;51.206;16.144;2024-01-07T07:20:14;14.50;14.50;7.50
85042;PMS7003;75372;51.206;16.144;2024-01-07T07:21:44;17.50;17.50;12.00
85042;PMS7003;75372;51.206;16.144;2024-01-07T07:23:15;17.50;17.50;10.50
85042;PMS7003;75372;51.206;16.144;2024-01-07T07:24:45;21.50;21.00;13.00
85042;PMS7003;75372;51.206;16.144;2024-01-07T07:26:15;21.33;21.00;13.00
85042;PMS7003;75372;51.206;16.144;2024-01-07T07:27:46;21.25;21.25;14.50
85042;PMS7003;75372;51.206;16.144;2024-01-07T07:29:16;15.50;15.50;11.50
85042;PMS7003;75372;51.206;16.144;2024-01-07T07:30:46;19.00;18.00;12.50
85042;PMS7003;75372;51.206;16.144;2024-01-07T07:32:17;20.75;19.00;12.75
85042;PMS7003;75372;51.206;16.144;2024-01-07T07:33:48;22.25;17.75;10.50
85042;PMS7003;75372;51.206;16.144;2024-01-07T07:35:18;18.25;18.25;12.00
85042;PMS7003;75372;51.206;16.144;2024-01-07T07:36:48;20.00;18.75;10.00
85042;PMS7003;75372;51.206;16.144;2024-01-07T07:38:19;10.00;10.00;10.00
85042;PMS7003;75372;51.206;16.144;2024-01-07T07:39:49;18.50;18.50;14.00
85042;PMS7003;75372;51.206;16.144;2024-01-07T07:41:19;18.00;18.00;10.00
85042;PMS7003;75372;51.206;16.144;2024-01-07T07:42:50;16.00;16.00;12.00
85042;PMS7003;75372;51.206;16.144;2024-01-07T07:44:21;19.00;19.00;13.00
85042;PMS7003;75372;51.206;16.144;2024-01-07T07:45:51;18.00;18.00;12.00
85042;PMS7003;75372;51.206;16.144;2024-01-07T07:47:21;19.00;19.00;12.00
85042;PMS7003;75372;51.206;16.144;2024-01-07T07:48:52;24.75;21.75;12.25
85042;PMS7003;75372;51.206;16.144;2024-01-07T07:50:22;17.50;17.50;14.00
85042;PMS7003;75372;51.206;16.144;2024-01-07T07:51:52;16.75;16.75;13.00
85042;PMS7003;75372;51.206;16.144;2024-01-07T07:53:23;20.00;20.00;12.25
85042;PMS7003;75372;51.206;16.144;2024-01-07T07:54:53;21.75;21.25;11.50
85042;PMS7003;75372;51.206;16.144;2024-01-07T07:56:24;11.00;11.00;4.50
85042;PMS7003;75372;51.206;16.144;2024-01-07T07:57:54;20.00;20.00;13.75
85042;PMS7003;75372;51.206;16.144;2024-01-07T07:59:25;18.00;18.00;12.00
85042;PMS7003;75372;51.206;16.144;2024-01-07T08:00:55;21.75;21.50;13.00
85042;PMS7003;75372;51.206;16.144;2024-01-07T08:02:25;19.00;19.00;12.33
85042;PMS7003;75372;51.206;16.144;2024-01-07T08:03:56;16.67;15.33;10.00
85042;PMS7003;75372;51.206;16.144;2024-01-07T08:05:26;17.33;17.33;12.67
85042;PMS7003;75372;51.206;16.144;2024-01-07T08:06:57;11.33;10.00;7.00
85042;PMS7003;75372;51.206;16.144;2024-01-07T08:08:27;18.00;18.00;12.00
85042;PMS7003;75372;51.206;16.144;2024-01-07T08:09:57;19.67;18.33;12.00
85042;PMS7003;75372;51.206;16.144;2024-01-07T08:11:28;21.75;21.75;15.00
85042;PMS7003;75372;51.206;16.144;2024-01-07T08:12:59;17.33;17.33;13.00
85042;PMS7003;75372;51.206;16.144;2024-01-07T08:14:30;23.75;23.75;16.00
85042;PMS7003;75372;51.206;16.144;2024-01-07T08:16:01;25.00;23.00;15.00
85042;PMS7003;75372;51.206;16.144;2024-01-07T08:17:31;24.25;24.25;15.50
85042;PMS7003;75372;51.206;16.144;2024-01-07T08:19:02;27.00;24.50;15.75
85042;PMS7003;75372;51.206;16.144;2024-01-07T08:20:32;24.33;24.33;12.67